Time;durP1;ratioP1;P1;durP2;ratioP2;P2;SDS_P1;SDS_P2;PMS_P1;PMS_P2;Temp;Humidity;BMP_temperature;BMP_pressure;BME280_temperature;BME280_humidity;BME280_pressure;Samples;Min_cycle;Max_cycle;Signal;HPM_P1;HPM_P2
2022/10/12 00:00:35;;;;;;;10.95;4.03;;;;;;;;;;5033461;28;20129;-86
2022/10/12 00:03:02;;;;;;;7.93;4.20;;;;;;;;;;5048940;28;20064;-85
2022/10/12 00:05:29;;;;;;;10.27;4.30;;;;;;;;;;5048640;28;20405;-86
2022/10/12 00:07:56;;;;;;;10.60;4.45;;;;;;;;;;5048832;28;20050;-86
2022/10/12 00:10:24;;;;;;;11.20;4.38;;;;;;;;;;5033277;28;20049;-86
2022/10/12 00:12:51;;;;;;;7.18;4.53;;;;;;;;;;5048713;28;20049;-86
2022/10/12 00:15:18;;;;;;;12.73;4.47;;;;;;;;;;5048440;28;20061;-86
2022/10/12 00:17:45;;;;;;;13.05;4.15;;;;;;;;;;5033067;28;20413;-86
2022/10/12 00:20:12;;;;;;;10.35;4.70;;;;;;;;;;5033374;28;20057;-86
2022/10/12 00:22:40;;;;;;;7.88;4.28;;;;;;;;;;5048655;28;20063;-86
2022/10/12 00:25:07;;;;;;;9.77;4.20;;;;;;;;;;5048920;28;20482;-86
2022/10/12 00:27:34;;;;;;;8.32;4.22;;;;;;;;;;5033017;28;20049;-86
2022/10/12 00:30:02;;;;;;;8.95;4.00;;;;;;;;;;5048524;28;20100;-86
2022/10/12 00:32:29;;;;;;;10.60;4.15;;;;;;;;;;5048342;28;20050;-86
2022/10/12 00:34:56;;;;;;;11.07;4.75;;;;;;;;;;5048064;28;20049;-87
2022/10/12 00:37:23;;;;;;;12.68;4.63;;;;;;;;;;5048547;28;20045;-86
2022/10/12 00:39:50;;;;;;;7.18;4.10;;;;;;;;;;5033062;28;20053;-86
2022/10/12 00:42:19;;;;;;;11.55;4.18;;;;;;;;;;5034567;28;20493;-85
2022/10/12 00:44:47;;;;;;;8.38;4.13;;;;;;;;;;5037040;28;20053;-86
2022/10/12 00:47:20;;;;;;;5.43;3.58;;;;;;;;;;5052457;28;20057;-86
2022/10/12 00:49:50;;;;;;;9.13;4.72;;;;;;;;;;5037059;28;20049;-86
2022/10/12 00:52:19;;;;;;;5.47;3.75;;;;;;;;;;5052667;28;20049;-86
2022/10/12 00:54:48;;;;;;;7.43;4.47;;;;;;;;;;5052181;28;20054;-86
2022/10/12 00:57:16;;;;;;;12.02;4.57;;;;;;;;;;5052372;28;20103;-86
2022/10/12 00:59:51;;;;;;;8.23;4.47;;;;;;;;;;5052145;28;20064;-86
2022/10/12 01:02:18;;;;;;;11.75;4.85;;;;;;;;;;5036700;28;20501;-86
2022/10/12 01:04:46;;;;;;;12.63;3.95;;;;;;;;;;5052301;28;20046;-86
2022/10/12 01:07:13;;;;;;;8.15;4.20;;;;;;;;;;5036888;28;20081;-86
2022/10/12 01:09:40;;;;;;;12.18;4.38;;;;;;;;;;5036391;28;20064;-86
2022/10/12 01:12:08;;;;;;;9.00;4.65;;;;;;;;;;5051918;28;20551;-87
2022/10/12 01:14:35;;;;;;;13.82;5.05;;;;;;;;;;5051842;28;20064;-86
2022/10/12 01:17:12;;;;;;;7.90;4.85;;;;;;;;;;5036423;28;20045;-87
2022/10/12 01:19:42;;;;;;;10.93;5.22;;;;;;;;;;5051897;28;20531;-86
2022/10/12 01:22:11;;;;;;;7.45;4.75;;;;;;;;;;5036249;28;20053;-86
2022/10/12 01:24:41;;;;;;;10.90;4.63;;;;;;;;;;5051671;28;20136;-84
2022/10/12 01:27:08;;;;;;;9.57;4.20;;;;;;;;;;5051545;28;20066;-86
2022/10/12 01:29:54;;;;;;;10.32;4.50;;;;;;;;;;5051593;28;20084;-86
2022/10/12 01:32:33;;;;;;;10.43;3.63;;;;;;;;;;5051383;28;20045;-86
2022/10/12 01:35:09;;;;;;;7.90;3.95;;;;;;;;;;5036153;28;20398;-86
2022/10/12 01:37:39;;;;;;;7.60;4.63;;;;;;;;;;5036067;28;20051;-86
2022/10/12 01:40:15;;;;;;;7.63;4.50;;;;;;;;;;5051481;28;20049;-86
2022/10/12 01:42:43;;;;;;;8.40;4.47;;;;;;;;;;5051284;28;20480;-87
2022/10/12 01:45:12;;;;;;;11.48;4.20;;;;;;;;;;5051335;28;20065;-87
2022/10/12 01:47:40;;;;;;;9.23;4.55;;;;;;;;;;5051321;28;20065;-87
2022/10/12 01:50:10;;;;;;;7.03;4.60;;;;;;;;;;5035828;28;20045;-87
2022/10/12 01:52:49;;;;;;;8.30;4.35;;;;;;;;;;5035917;28;20060;-85
2022/10/12 01:55:17;;;;;;;7.50;4.18;;;;;;;;;;5050255;28;20075;-86
2022/10/12 01:57:50;;;;;;;10.90;4.03;;;;;;;;;;5051068;28;20045;-86
2022/10/12 02:00:18;;;;;;;;;;;;;;;;;;5036121;28;20045;-86
2022/10/12 02:03:03;;;;;;;11.32;4.03;;;;;;;;;;5035446;28;19925;-86
2022/10/12 02:06:06;;;;;;;8.30;4.78;;;;;;;;;;5035748;28;20090;-87
2022/10/12 02:08:40;;;;;;;11.27;4.80;;;;;;;;;;4974448;28;20055;-86
2022/10/12 02:11:09;;;;;;;6.50;4.43;;;;;;;;;;5026195;28;20464;-87
2022/10/12 02:13:43;;;;;;;8.05;4.53;;;;;;;;;;5051019;28;20053;-86
2022/10/12 02:16:13;;;;;;;11.07;4.55;;;;;;;;;;5035487;28;20136;-86
2022/10/12 02:18:43;;;;;;;8.23;4.30;;;;;;;;;;5035529;28;20049;-87
2022/10/12 02:21:13;;;;;;;12.65;5.20;;;;;;;;;;5050887;28;20053;-86
2022/10/12 02:23:40;;;;;;;10.50;4.80;;;;;;;;;;5050880;28;20061;-86
2022/10/12 02:26:08;;;;;;;7.03;4.47;;;;;;;;;;5050750;28;20048;-86
2022/10/12 02:28:36;;;;;;;10.25;4.60;;;;;;;;;;5050643;28;20076;-86
2022/10/12 02:31:10;;;;;;;5.32;4.30;;;;;;;;;;5035436;28;20056;-86
2022/10/12 02:33:40;;;;;;;6.95;4.15;;;;;;;;;;5050653;28;20049;-86
2022/10/12 02:36:17;;;;;;;11.38;4.55;;;;;;;;;;5050674;28;20057;-86
2022/10/12 02:38:52;;;;;;;8.95;4.75;;;;;;;;;;5050677;28;20084;-87
2022/10/12 02:41:22;;;;;;;10.65;5.30;;;;;;;;;;5050525;28;20496;-86
2022/10/12 02:43:52;;;;;;;7.53;5.80;;;;;;;;;;5035108;28;20052;-87
2022/10/12 02:46:22;;;;;;;9.63;5.40;;;;;;;;;;5034990;28;20052;-86
2022/10/12 02:48:51;;;;;;;9.25;5.47;;;;;;;;;;5034717;28;20429;-86
2022/10/12 02:51:19;;;;;;;8.32;5.03;;;;;;;;;;5050468;28;20056;-87
2022/10/12 02:53:46;;;;;;;10.75;5.50;;;;;;;;;;5034627;28;20053;-86
2022/10/12 02:56:14;;;;;;;10.57;5.28;;;;;;;;;;5050053;28;20068;-86
2022/10/12 02:58:43;;;;;;;9.57;5.32;;;;;;;;;;5034441;28;20124;-87
2022/10/12 03:01:10;;;;;;;12.10;4.82;;;;;;;;;;5050145;28;20053;-86
2022/10/12 03:03:37;;;;;;;11.52;6.32;;;;;;;;;;5034636;28;20136;-87
2022/10/12 03:06:05;;;;;;;7.75;5.95;;;;;;;;;;5049561;28;20478;-87
2022/10/12 03:08:32;;;;;;;13.77;5.90;;;;;;;;;;5049504;28;20050;-86
2022/10/12 03:11:02;;;;;;;9.63;5.85;;;;;;;;;;5034451;28;20053;-86
2022/10/12 03:13:30;;;;;;;8.63;5.28;;;;;;;;;;5049970;28;20157;-86
2022/10/12 03:16:04;;;;;;;12.85;6.20;;;;;;;;;;5049649;28;20490;-86
2022/10/12 03:18:31;;;;;;;10.10;5.40;;;;;;;;;;5049722;28;20500;-87
2022/10/12 03:20:58;;;;;;;8.48;4.85;;;;;;;;;;5049860;28;20092;-86
2022/10/12 03:23:26;;;;;;;15.18;5.82;;;;;;;;;;5049379;28;20045;-87
2022/10/12 03:25:53;;;;;;;12.40;5.68;;;;;;;;;;5033970;28;20055;-87
2022/10/12 03:28:20;;;;;;;10.90;5.43;;;;;;;;;;5033983;28;20134;-87
2022/10/12 03:30:47;;;;;;;13.10;6.00;;;;;;;;;;5033961;28;20046;-87
2022/10/12 03:33:14;;;;;;;7.28;5.47;;;;;;;;;;5049558;28;20053;-86
2022/10/12 03:35:45;;;;;;;13.65;6.45;;;;;;;;;;5049416;28;20053;-86
2022/10/12 03:38:12;;;;;;;11.10;5.97;;;;;;;;;;5033982;28;20049;-87
2022/10/12 03:40:39;;;;;;;8.18;5.55;;;;;;;;;;5033847;28;20124;-86
2022/10/12 03:43:07;;;;;;;11.65;6.28;;;;;;;;;;5049259;28;20052;-87
2022/10/12 03:45:34;;;;;;;10.40;5.22;;;;;;;;;;5049341;28;20679;-87
2022/10/12 03:48:02;;;;;;;8.77;5.75;;;;;;;;;;5033800;28;20049;-87
2022/10/12 03:50:33;;;;;;;11.95;5.00;;;;;;;;;;5048834;28;20132;-86
2022/10/12 03:53:01;;;;;;;7.60;5.03;;;;;;;;;;5033609;28;20095;-86
2022/10/12 03:55:28;;;;;;;12.77;5.68;;;;;;;;;;5049274;28;20581;-87
2022/10/12 03:57:55;;;;;;;12.25;5.75;;;;;;;;;;5035008;28;20057;-87
2022/10/12 04:00:23;;;;;;;15.13;6.10;;;;;;;;;;5049015;28;20046;-87
2022/10/12 04:02:50;;;;;;;10.18;5.28;;;;;;;;;;5048964;28;20057;-87
2022/10/12 04:05:17;;;;;;;9.05;5.70;;;;;;;;;;5033339;28;20053;-87
2022/10/12 04:07:44;;;;;;;12.88;6.38;;;;;;;;;;5033823;28;20132;-87
2022/10/12 04:10:11;;;;;;;16.92;8.02;;;;;;;;;;5048647;28;20061;-87
2022/10/12 04:12:38;;;;;;;11.18;6.90;;;;;;;;;;5048613;28;20053;-86
2022/10/12 04:15:06;;;;;;;9.95;6.40;;;;;;;;;;5032530;28;20492;-87
2022/10/12 04:17:33;;;;;;;11.25;6.70;;;;;;;;;;5048332;28;20061;-86
2022/10/12 04:20:00;;;;;;;13.38;6.72;;;;;;;;;;5048657;28;20132;-87
2022/10/12 04:22:27;;;;;;;11.32;6.38;;;;;;;;;;5048863;28;20496;-87
2022/10/12 04:24:55;;;;;;;15.30;6.65;;;;;;;;;;5048878;28;20050;-87
2022/10/12 04:27:22;;;;;;;11.48;5.68;;;;;;;;;;5048757;28;20053;-86
2022/10/12 04:29:49;;;;;;;8.38;5.53;;;;;;;;;;5048463;28;20053;-85
2022/10/12 04:32:16;;;;;;;11.23;6.20;;;;;;;;;;5048625;28;20042;-87
2022/10/12 04:34:43;;;;;;;12.60;6.60;;;;;;;;;;5048359;28;20502;-86
2022/10/12 04:37:11;;;;;;;7.80;6.25;;;;;;;;;;5033365;28;20053;-87
2022/10/12 04:39:38;;;;;;;11.38;6.00;;;;;;;;;;5048752;28;20057;-86
2022/10/12 04:42:06;;;;;;;18.70;7.18;;;;;;;;;;5048611;28;20080;-87
2022/10/12 04:44:33;;;;;;;16.98;6.63;;;;;;;;;;5048472;28;20561;-86
2022/10/12 04:47:01;;;;;;;10.45;6.80;;;;;;;;;;5032938;28;20505;-86
2022/10/12 04:49:28;;;;;;;10.60;6.13;;;;;;;;;;5032904;28;20049;-85
2022/10/12 04:51:55;;;;;;;10.90;7.00;;;;;;;;;;5033160;28;20151;-85
2022/10/12 04:54:22;;;;;;;9.95;6.65;;;;;;;;;;5048571;28;20501;-86
2022/10/12 04:56:49;;;;;;;6.20;4.97;;;;;;;;;;5032872;28;20049;-86
2022/10/12 04:59:16;;;;;;;10.93;5.60;;;;;;;;;;5048457;28;20072;-87
2022/10/12 05:01:46;;;;;;;9.55;6.03;;;;;;;;;;5032937;28;20132;-86
2022/10/12 05:04:13;;;;;;;12.07;6.03;;;;;;;;;;5032943;28;20125;-86
2022/10/12 05:06:41;;;;;;;12.65;6.57;;;;;;;;;;5049043;28;20049;-86
2022/10/12 05:09:08;;;;;;;10.52;5.50;;;;;;;;;;5048373;28;20053;-87
2022/10/12 05:11:42;;;;;;;9.27;5.85;;;;;;;;;;5047349;28;20057;-87
2022/10/12 05:14:09;;;;;;;14.02;5.78;;;;;;;;;;5047878;28;20049;-85
2022/10/12 05:16:36;;;;;;;7.95;5.22;;;;;;;;;;5047883;28;20422;-86
2022/10/12 05:19:03;;;;;;;9.88;6.28;;;;;;;;;;5048415;28;20068;-86
2022/10/12 05:21:30;;;;;;;11.65;5.90;;;;;;;;;;5032670;28;20505;-86
2022/10/12 05:23:57;;;;;;;11.23;5.53;;;;;;;;;;5032698;28;20049;-86
2022/10/12 05:26:25;;;;;;;11.88;5.65;;;;;;;;;;5032681;28;20053;-86
2022/10/12 05:28:52;;;;;;;7.80;5.32;;;;;;;;;;5034761;28;20049;-86
2022/10/12 05:31:19;;;;;;;10.35;5.60;;;;;;;;;;5051972;28;20440;-86
2022/10/12 05:33:46;;;;;;;13.00;6.50;;;;;;;;;;5051780;28;20045;-86
2022/10/12 05:36:13;;;;;;;14.23;6.63;;;;;;;;;;5051547;28;20053;-86
2022/10/12 05:38:40;;;;;;;15.52;6.70;;;;;;;;;;5051757;28;20056;-86
2022/10/12 05:41:08;;;;;;;12.07;6.35;;;;;;;;;;5051611;28;20489;-86
2022/10/12 05:43:35;;;;;;;15.43;6.43;;;;;;;;;;5051550;28;20053;-86
2022/10/12 05:46:02;;;;;;;12.32;6.38;;;;;;;;;;5051749;28;20060;-86
2022/10/12 05:48:29;;;;;;;9.13;5.75;;;;;;;;;;5051515;28;20045;-87
2022/10/12 05:50:56;;;;;;;14.40;7.30;;;;;;;;;;5036008;28;20071;-86
2022/10/12 05:53:24;;;;;;;11.70;6.95;;;;;;;;;;5051510;28;20068;-86
2022/10/12 05:55:54;;;;;;;18.08;7.00;;;;;;;;;;5035888;28;20061;-86
2022/10/12 05:58:22;;;;;;;12.52;7.15;;;;;;;;;;5051407;28;20049;-86
2022/10/12 06:00:49;;;;;;;14.85;7.30;;;;;;;;;;5051539;28;20068;-87
2022/10/12 06:03:16;;;;;;;9.98;6.55;;;;;;;;;;5051167;28;20049;-86
2022/10/12 06:05:45;;;;;;;14.38;8.48;;;;;;;;;;5035610;28;20476;-86
2022/10/12 06:08:13;;;;;;;17.58;8.25;;;;;;;;;;5035718;28;20052;-86
2022/10/12 06:10:44;;;;;;;17.00;7.45;;;;;;;;;;5050784;28;20514;-86
2022/10/12 06:13:11;;;;;;;11.02;6.85;;;;;;;;;;5050994;28;20084;-87
2022/10/12 06:15:38;;;;;;;11.93;8.02;;;;;;;;;;5050708;28;20053;-87
2022/10/12 06:18:05;;;;;;;18.33;7.65;;;;;;;;;;5035543;28;20053;-87
2022/10/12 06:20:33;;;;;;;9.88;7.18;;;;;;;;;;5050884;28;20056;-86
2022/10/12 06:23:00;;;;;;;17.60;10.23;;;;;;;;;;5050856;28;20395;-87
2022/10/12 06:25:27;;;;;;;14.55;8.82;;;;;;;;;;5035333;28;20041;-87
2022/10/12 06:27:54;;;;;;;12.73;9.40;;;;;;;;;;5035374;28;20065;-85
2022/10/12 06:30:21;;;;;;;23.52;11.93;;;;;;;;;;5035408;28;20050;-86
2022/10/12 06:32:48;;;;;;;22.05;13.02;;;;;;;;;;5035044;28;20068;-86
2022/10/12 06:35:15;;;;;;;18.00;9.70;;;;;;;;;;5034818;28;20042;-86
2022/10/12 06:37:48;;;;;;;14.43;10.07;;;;;;;;;;5050580;28;20057;-86
2022/10/12 06:40:17;;;;;;;18.20;11.20;;;;;;;;;;5049882;28;20115;-86
2022/10/12 06:42:44;;;;;;;23.60;12.20;;;;;;;;;;5050611;28;20068;-86
2022/10/12 06:45:11;;;;;;;21.08;10.68;;;;;;;;;;5050282;28;20049;-86
2022/10/12 06:47:39;;;;;;;16.38;9.75;;;;;;;;;;5034805;28;20048;-86
2022/10/12 06:50:07;;;;;;;16.02;10.32;;;;;;;;;;5050350;28;20063;-86
2022/10/12 06:52:35;;;;;;;23.65;11.00;;;;;;;;;;5050326;28;20051;-87
2022/10/12 06:55:03;;;;;;;23.63;10.20;;;;;;;;;;5050130;28;20085;-86
2022/10/12 06:57:30;;;;;;;17.33;7.50;;;;;;;;;;5049710;28;20117;-86
2022/10/12 06:59:57;;;;;;;8.98;7.55;;;;;;;;;;5050267;28;20052;-87
2022/10/12 07:02:24;;;;;;;12.05;8.32;;;;;;;;;;5034453;28;20069;-86
2022/10/12 07:04:51;;;;;;;15.30;7.18;;;;;;;;;;5034513;28;20052;-87
2022/10/12 07:07:19;;;;;;;12.52;8.38;;;;;;;;;;5049954;28;20487;-86
2022/10/12 07:09:46;;;;;;;22.55;9.48;;;;;;;;;;5034233;28;20076;-86
2022/10/12 07:12:13;;;;;;;12.85;8.05;;;;;;;;;;5049747;28;20474;-86
2022/10/12 07:14:41;;;;;;;13.30;8.60;;;;;;;;;;5049684;28;20089;-86
2022/10/12 07:17:08;;;;;;;19.73;9.90;;;;;;;;;;5049620;28;20053;-86
2022/10/12 07:19:35;;;;;;;14.25;7.57;;;;;;;;;;5034450;28;20065;-86
2022/10/12 07:22:02;;;;;;;12.07;8.07;;;;;;;;;;5034350;28;20049;-86
2022/10/12 07:24:35;;;;;;;17.17;8.38;;;;;;;;;;5049312;28;20045;-86
2022/10/12 07:27:06;;;;;;;17.63;7.18;;;;;;;;;;5049707;28;20135;-86
2022/10/12 07:29:34;;;;;;;20.08;8.32;;;;;;;;;;5049403;28;20045;-86
2022/10/12 07:32:01;;;;;;;15.30;6.65;;;;;;;;;;5049432;28;20057;-86
2022/10/12 07:34:29;;;;;;;19.10;6.88;;;;;;;;;;5033825;28;20045;-85
2022/10/12 07:36:57;;;;;;;20.95;7.47;;;;;;;;;;5049339;28;20490;-86
2022/10/12 07:39:26;;;;;;;17.40;8.30;;;;;;;;;;5049788;28;20057;-86
2022/10/12 07:41:53;;;;;;;21.10;7.75;;;;;;;;;;5049121;28;20042;-85
2022/10/12 07:44:21;;;;;;;23.38;6.75;;;;;;;;;;5033707;28;20056;-86
2022/10/12 07:46:48;;;;;;;11.73;5.60;;;;;;;;;;5033577;28;20057;-85
2022/10/12 07:49:16;;;;;;;18.17;6.28;;;;;;;;;;5048986;28;20500;-86
2022/10/12 07:51:45;;;;;;;14.88;4.88;;;;;;;;;;5047893;28;20449;-86
2022/10/12 07:54:12;;;;;;;29.45;5.78;;;;;;;;;;5048694;28;20136;-86
2022/10/12 07:56:46;;;;;;;24.15;5.05;;;;;;;;;;5047735;28;20054;-86
2022/10/12 07:59:13;;;;;;;14.23;4.60;;;;;;;;;;5033468;28;20060;-85
2022/10/12 08:01:41;;;;;;;24.15;5.20;;;;;;;;;;5048595;28;20509;-85
2022/10/12 08:04:09;;;;;;;10.30;3.28;;;;;;;;;;5048278;28;20053;-85
2022/10/12 08:06:36;;;;;;;6.90;3.67;;;;;;;;;;5048561;28;20057;-85
2022/10/12 08:09:04;;;;;;;4.22;2.70;;;;;;;;;;5032943;28;20053;-85
2022/10/12 08:11:31;;;;;;;7.32;2.95;;;;;;;;;;5033452;28;20058;-85
2022/10/12 08:13:58;;;;;;;11.15;3.13;;;;;;;;;;5048626;28;20045;-85
2022/10/12 08:16:25;;;;;;;11.32;3.63;;;;;;;;;;5033267;28;20452;-85
2022/10/12 08:18:52;;;;;;;11.95;3.80;;;;;;;;;;5033023;28;20136;-85
2022/10/12 08:21:20;;;;;;;19.30;3.58;;;;;;;;;;5048510;28;20041;-85
2022/10/12 08:23:47;;;;;;;12.20;3.17;;;;;;;;;;5033203;28;20050;-85
2022/10/12 08:26:15;;;;;;;9.98;2.40;;;;;;;;;;5032935;28;20465;-85
2022/10/12 08:28:42;;;;;;;7.63;3.10;;;;;;;;;;5048374;28;20062;-86
2022/10/12 08:31:11;;;;;;;7.28;2.72;;;;;;;;;;5033147;28;20409;-86
2022/10/12 08:33:38;;;;;;;7.95;2.50;;;;;;;;;;5032618;28;20042;-86
2022/10/12 08:36:06;;;;;;;9.20;2.15;;;;;;;;;;5047845;28;20076;-86
2022/10/12 08:38:37;;;;;;;4.03;2.10;;;;;;;;;;5047886;28;20450;-86
2022/10/12 08:41:21;;;;;;;8.07;2.83;;;;;;;;;;5048408;28;20398;-86
2022/10/12 08:43:57;;;;;;;24.50;4.38;;;;;;;;;;5048025;28;20050;-86
2022/10/12 08:46:25;;;;;;;15.82;3.60;;;;;;;;;;5032752;28;20056;-86
2022/10/12 08:48:58;;;;;;;14.68;3.38;;;;;;;;;;5033005;28;20124;-86
2022/10/12 08:51:26;;;;;;;10.20;2.80;;;;;;;;;;5048528;28;20049;-86
2022/10/12 08:54:02;;;;;;;14.75;2.55;;;;;;;;;;5048082;28;20056;-86
2022/10/12 08:56:29;;;;;;;9.68;2.63;;;;;;;;;;5048046;28;20054;-86
2022/10/12 08:58:57;;;;;;;10.25;2.63;;;;;;;;;;5048213;28;20061;-87
2022/10/12 09:01:27;;;;;;;10.27;2.65;;;;;;;;;;5048537;28;20056;-86
2022/10/12 09:04:01;;;;;;;9.07;2.50;;;;;;;;;;5050754;28;20104;-86
2022/10/12 09:06:28;;;;;;;;;;;;;;;;;;5037121;28;20045;-86
2022/10/12 09:08:59;;;;;;;5.80;2.45;;;;;;;;;;5035419;28;19990;-86
2022/10/12 09:11:35;;;;;;;7.85;2.95;;;;;;;;;;5036689;28;20049;-86
2022/10/12 09:14:06;;;;;;;6.80;2.70;;;;;;;;;;5052009;28;20053;-86
2022/10/12 09:16:35;;;;;;;7.20;2.33;;;;;;;;;;5051802;28;20132;-86
2022/10/12 09:19:16;;;;;;;4.78;2.08;;;;;;;;;;5051754;28;20482;-85
2022/10/12 09:21:45;;;;;;;5.22;2.53;;;;;;;;;;5036396;28;20053;-86
2022/10/12 09:24:15;;;;;;;8.43;2.35;;;;;;;;;;5036194;28;20046;-86
2022/10/12 09:26:44;;;;;;;4.78;2.20;;;;;;;;;;5051752;28;20045;-86
2022/10/12 09:29:23;;;;;;;6.22;2.50;;;;;;;;;;5051831;28;20053;-86
2022/10/12 09:32:00;;;;;;;33.95;8.20;;;;;;;;;;5036340;28;20482;-88
2022/10/12 09:34:27;;;;;;;34.97;10.55;;;;;;;;;;5051869;28;20049;-88
2022/10/12 09:36:54;;;;;;;21.23;9.27;;;;;;;;;;5052122;28;20054;-88
2022/10/12 09:39:26;;;;;;;26.05;10.63;;;;;;;;;;5036460;28;20064;-89
2022/10/12 09:41:55;;;;;;;12.55;5.65;;;;;;;;;;5051810;28;20050;-89
2022/10/12 09:44:39;;;;;;;30.60;8.10;;;;;;;;;;5036248;28;20050;-88
2022/10/12 09:47:25;;;;;;;16.48;5.43;;;;;;;;;;5036205;28;20054;-87
2022/10/12 09:49:57;;;;;;;17.58;5.32;;;;;;;;;;5051614;28;20105;-89
2022/10/12 09:52:26;;;;;;;27.35;7.55;;;;;;;;;;5051683;28;20054;-91
2022/10/12 09:54:56;;;;;;;19.38;4.85;;;;;;;;;;5036197;28;20045;-90
2022/10/12 09:57:27;;;;;;;11.85;3.53;;;;;;;;;;5051438;28;20065;-88
2022/10/12 09:59:54;;;;;;;15.00;4.68;;;;;;;;;;5051663;28;20498;-91
2022/10/12 10:02:22;;;;;;;18.90;5.28;;;;;;;;;;5051625;28;20049;-89
2022/10/12 10:04:50;;;;;;;12.82;2.95;;;;;;;;;;5051660;28;20382;-90
2022/10/12 10:07:23;;;;;;;19.85;3.33;;;;;;;;;;5051499;28;20050;-89
2022/10/12 10:10:11;;;;;;;13.15;4.35;;;;;;;;;;5051475;28;20056;-90
2022/10/12 10:12:43;;;;;;;7.60;3.40;;;;;;;;;;5026318;28;20413;-88
2022/10/12 10:15:20;;;;;;;25.08;6.32;;;;;;;;;;5049148;28;20057;-89
2022/10/12 10:17:52;;;;;;;21.40;4.72;;;;;;;;;;5051437;28;20059;-91
2022/10/12 10:20:38;;;;;;;11.60;3.17;;;;;;;;;;5051359;28;20064;-89
2022/10/12 10:23:05;;;;;;;10.82;3.50;;;;;;;;;;5051246;28;20053;-89
2022/10/12 10:25:34;;;;;;;22.25;4.50;;;;;;;;;;5051186;28;20054;-90
2022/10/12 10:28:20;;;;;;;10.57;3.38;;;;;;;;;;5051233;28;20428;-89
2022/10/12 10:31:01;;;;;;;18.17;4.05;;;;;;;;;;5035292;28;20140;-87
2022/10/12 10:33:29;;;;;;;19.08;3.92;;;;;;;;;;5035048;28;20433;-88
2022/10/12 10:35:59;;;;;;;44.58;7.28;;;;;;;;;;5035626;28;20064;-89
2022/10/12 10:38:26;;;;;;;25.27;5.13;;;;;;;;;;5034934;28;20069;-88
2022/10/12 10:40:55;;;;;;;18.55;4.05;;;;;;;;;;5050782;28;20052;-89
2022/10/12 10:43:26;;;;;;;15.48;3.42;;;;;;;;;;5035243;28;20061;-89
2022/10/12 10:45:59;;;;;;;17.65;4.32;;;;;;;;;;5051162;28;20041;-89
2022/10/12 10:48:28;;;;;;;19.35;4.40;;;;;;;;;;5051134;28;20045;-88
2022/10/12 10:50:59;;;;;;;22.75;5.28;;;;;;;;;;5050440;28;20054;-87
2022/10/12 10:53:27;;;;;;;21.15;4.82;;;;;;;;;;5050750;28;20068;-89
2022/10/12 10:55:56;;;;;;;23.48;4.63;;;;;;;;;;5050561;28;20053;-89
2022/10/12 10:58:27;;;;;;;9.43;4.45;;;;;;;;;;5050733;28;20144;-89
2022/10/12 11:00:56;;;;;;;14.93;4.40;;;;;;;;;;5035084;28;20045;-89
2022/10/12 11:03:28;;;;;;;11.27;3.65;;;;;;;;;;5034879;28;20061;-88
2022/10/12 11:06:06;;;;;;;16.55;4.20;;;;;;;;;;5034949;28;20509;-88
2022/10/12 11:08:34;;;;;;;13.93;3.83;;;;;;;;;;5034716;28;20053;-89
2022/10/12 11:11:15;;;;;;;15.07;3.90;;;;;;;;;;5035042;28;20478;-88
2022/10/12 11:13:49;;;;;;;14.70;3.80;;;;;;;;;;5050177;28;20421;-88
2022/10/12 11:16:25;;;;;;;8.75;3.33;;;;;;;;;;5034423;28;20045;-89
2022/10/12 11:18:57;;;;;;;13.80;4.00;;;;;;;;;;5034793;28;20054;-90
2022/10/12 11:21:27;;;;;;;11.40;4.70;;;;;;;;;;5034640;28;20056;-90
2022/10/12 11:23:58;;;;;;;16.35;4.55;;;;;;;;;;5050174;28;20420;-88
2022/10/12 11:26:31;;;;;;;6.10;3.63;;;;;;;;;;5049655;28;20046;-88
2022/10/12 11:28:59;;;;;;;10.48;4.10;;;;;;;;;;5050018;28;20512;-87
2022/10/12 11:31:31;;;;;;;5.85;3.72;;;;;;;;;;5034068;28;20057;-88
2022/10/12 11:34:02;;;;;;;7.18;3.55;;;;;;;;;;5049924;28;20048;-87
2022/10/12 11:36:30;;;;;;;6.03;3.35;;;;;;;;;;5049732;28;20153;-88
2022/10/12 11:39:05;;;;;;;7.72;3.60;;;;;;;;;;5033777;28;20054;-88
2022/10/12 11:41:50;;;;;;;12.70;3.28;;;;;;;;;;5033949;28;20042;-88
2022/10/12 11:44:45;;;;;;;11.10;3.67;;;;;;;;;;5047007;28;20095;-90
2022/10/12 11:47:15;;;;;;;7.88;3.00;;;;;;;;;;5033804;28;20061;-88
2022/10/12 11:49:42;;;;;;;22.83;4.57;;;;;;;;;;5049087;28;20045;-88
2022/10/12 11:52:10;;;;;;;9.38;3.60;;;;;;;;;;5049190;28;20136;-88
2022/10/12 11:54:44;;;;;;;6.93;3.70;;;;;;;;;;5049304;28;20045;-88
2022/10/12 11:57:31;;;;;;;9.32;3.53;;;;;;;;;;5033711;28;20046;-88
2022/10/12 12:00:03;;;;;;;10.35;3.80;;;;;;;;;;5049199;28;20056;-91
2022/10/12 12:02:38;;;;;;;16.35;4.68;;;;;;;;;;5050769;28;20221;-89
2022/10/12 12:05:10;;;;;;;15.07;3.67;;;;;;;;;;5049473;28;20054;-87
2022/10/12 12:07:49;;;;;;;6.10;3.13;;;;;;;;;;5034313;28;20274;-89
2022/10/12 12:10:35;;;;;;;6.32;3.25;;;;;;;;;;5048942;28;20054;-88
2022/10/12 12:13:12;;;;;;;5.47;3.10;;;;;;;;;;5049293;28;20111;-88
2022/10/12 12:15:40;;;;;;;7.93;2.85;;;;;;;;;;5033782;28;20045;-88
2022/10/12 12:18:11;;;;;;;7.68;3.08;;;;;;;;;;5049505;28;20060;-88
2022/10/12 12:20:41;;;;;;;6.35;3.30;;;;;;;;;;5048835;28;20135;-88
2022/10/12 12:23:24;;;;;;;5.03;3.05;;;;;;;;;;5049163;28;20120;-89
2022/10/12 12:26:04;;;;;;;6.95;3.38;;;;;;;;;;5049038;28;20478;-90
2022/10/12 12:28:32;;;;;;;5.47;3.17;;;;;;;;;;5033332;28;20088;-89
2022/10/12 12:31:01;;;;;;;7.43;3.53;;;;;;;;;;5033620;28;20052;-89
2022/10/12 12:33:34;;;;;;;4.43;3.20;;;;;;;;;;5048714;28;20075;-88
2022/10/12 12:36:01;;;;;;;4.87;3.20;;;;;;;;;;5048796;28;20045;-90
2022/10/12 12:38:31;;;;;;;9.02;3.22;;;;;;;;;;5050505;28;20338;-89
2022/10/12 12:41:03;;;;;;;11.43;3.40;;;;;;;;;;5053128;28;20060;-90
2022/10/12 12:43:30;;;;;;;9.07;3.35;;;;;;;;;;5052916;28;20049;-89
2022/10/12 12:45:57;;;;;;;4.35;2.53;;;;;;;;;;5037295;28;20048;-88
2022/10/12 12:48:46;;;;;;;13.20;3.72;;;;;;;;;;5052531;28;20056;-90
2022/10/12 12:51:22;;;;;;;8.98;3.28;;;;;;;;;;5052837;28;20252;-88
2022/10/12 12:54:00;;;;;;;6.63;2.97;;;;;;;;;;5037717;28;20051;-89
2022/10/12 12:56:36;;;;;;;9.55;2.80;;;;;;;;;;5052684;28;20049;-90
2022/10/12 12:59:16;;;;;;;7.85;2.60;;;;;;;;;;5052525;28;20168;-89
2022/10/12 13:01:55;;;;;;;5.22;3.10;;;;;;;;;;5037054;28;20053;-89
2022/10/12 13:04:42;;;;;;;7.68;3.38;;;;;;;;;;5036910;28;20099;-89
2022/10/12 13:07:12;;;;;;;5.07;2.80;;;;;;;;;;5052645;28;20045;-88
2022/10/12 13:09:44;;;;;;;4.68;2.67;;;;;;;;;;5052252;28;20061;-88
2022/10/12 13:12:12;;;;;;;10.13;2.90;;;;;;;;;;5052552;28;20055;-89
2022/10/12 13:14:58;;;;;;;15.30;3.47;;;;;;;;;;5036707;28;20434;-90
2022/10/12 13:17:25;;;;;;;16.00;3.17;;;;;;;;;;5036777;28;20124;-88
2022/10/12 13:20:15;;;;;;;6.00;2.72;;;;;;;;;;5051334;28;20057;-88
2022/10/12 13:22:44;;;;;;;7.07;2.92;;;;;;;;;;5052405;28;20050;-89
2022/10/12 13:25:14;;;;;;;15.68;3.35;;;;;;;;;;5036398;28;20053;-88
2022/10/12 13:27:45;;;;;;;7.90;2.72;;;;;;;;;;5051970;28;20057;-89
2022/10/12 13:30:15;;;;;;;7.03;2.83;;;;;;;;;;5052067;28;20051;-88
2022/10/12 13:32:45;;;;;;;5.65;2.50;;;;;;;;;;5036830;28;20057;-88
2022/10/12 13:35:16;;;;;;;5.43;2.78;;;;;;;;;;5051791;28;20049;-88
2022/10/12 13:37:44;;;;;;;15.02;3.58;;;;;;;;;;5051757;28;20045;-90
2022/10/12 13:40:27;;;;;;;8.48;2.90;;;;;;;;;;5036620;28;20113;-89
2022/10/12 13:42:54;;;;;;;15.10;3.90;;;;;;;;;;5036528;28;20458;-88
2022/10/12 13:45:21;;;;;;;8.23;2.83;;;;;;;;;;5051695;28;20441;-89
2022/10/12 13:47:48;;;;;;;7.90;2.90;;;;;;;;;;5052050;28;20057;-87
2022/10/12 13:50:16;;;;;;;10.43;3.03;;;;;;;;;;5051353;28;20049;-88
2022/10/12 13:52:51;;;;;;;10.82;2.58;;;;;;;;;;5051410;28;20049;-88
2022/10/12 13:55:24;;;;;;;6.57;2.85;;;;;;;;;;5051523;28;20050;-88
2022/10/12 13:57:51;;;;;;;11.80;2.70;;;;;;;;;;5051623;28;20053;-89
2022/10/12 14:00:19;;;;;;;17.60;2.70;;;;;;;;;;5051390;28;20045;-88
2022/10/12 14:02:54;;;;;;;9.38;3.33;;;;;;;;;;5035905;28;20046;-88
2022/10/12 14:05:22;;;;;;;11.65;3.05;;;;;;;;;;5035645;28;20049;-88
2022/10/12 14:07:56;;;;;;;6.20;2.35;;;;;;;;;;5051081;28;20129;-87
2022/10/12 14:10:26;;;;;;;6.13;2.53;;;;;;;;;;5051301;28;20053;-88
2022/10/12 14:12:54;;;;;;;3.67;2.72;;;;;;;;;;5051281;28;20050;-88
2022/10/12 14:15:23;;;;;;;13.70;3.65;;;;;;;;;;5035758;28;20069;-87
2022/10/12 14:17:51;;;;;;;11.80;3.50;;;;;;;;;;5050631;28;20046;-87
2022/10/12 14:20:24;;;;;;;15.00;4.70;;;;;;;;;;5035500;28;20060;-87
2022/10/12 14:22:51;;;;;;;15.50;3.80;;;;;;;;;;5051199;28;20046;-88
2022/10/12 14:25:21;;;;;;;11.35;4.25;;;;;;;;;;5051090;28;20414;-88
2022/10/12 14:27:59;;;;;;;9.00;4.20;;;;;;;;;;5050864;28;20050;-87
2022/10/12 14:30:29;;;;;;;17.05;7.28;;;;;;;;;;5035785;28;20128;-87
2022/10/12 14:33:29;;;;;;;23.35;6.75;;;;;;;;;;5035597;28;20064;-87
2022/10/12 14:36:15;;;;;;;17.52;6.68;;;;;;;;;;5002155;28;20478;-88
2022/10/12 14:38:46;;;;;;;22.48;6.90;;;;;;;;;;5035253;28;20057;-88
2022/10/12 14:41:33;;;;;;;51.45;6.75;;;;;;;;;;5035246;28;20042;-88
2022/10/12 14:44:12;;;;;;;20.73;3.63;;;;;;;;;;5050734;28;20049;-87
2022/10/12 14:46:42;;;;;;;8.77;3.30;;;;;;;;;;5050539;28;20061;-88
2022/10/12 14:49:17;;;;;;;10.50;3.65;;;;;;;;;;5034893;28;20060;-88
2022/10/12 14:51:44;;;;;;;32.83;4.50;;;;;;;;;;5034891;28;20050;-88
2022/10/12 14:54:11;;;;;;;3.60;2.05;;;;;;;;;;5050349;28;20041;-88